Avalon, Texas
Current Conditions -  °F | °C
As of 6:55 AM on Friday 24 Oct 2014 (Local Time) from KJWY Reporting Station
Broken Clouds Broken Clouds  
Wind Chill: 59°   Ceiling: 7000
Heat Index: 59°   Visibility: 10mi
Dew Point: 56°   Wind: 3mph
Humidity: 88%   Direction: 140°SE
Pressure: 30.16"   Gusts: NA
Location:  32.21°N, 96.79°W
Report Text: KJWY 241155Z AUTO 14003KT 10SM SCT050 BKN070 15/13 A3016 RMK AO2 T01510132 10164 20149
Loading
Personal Weather Stations






























Interactive Weather Map New forecast layout! Learn more

10-Day Weather Forecast

Advertisements
Track Severe Weather on mobile